sensor_id;sensor_type;location;lat;lon;timestamp;P1;durP1;ratioP1;P2;durP2;ratioP2
68608;SDS011;55581;46.718;7.690;2023-12-20T00:01:44;10.52;;;5.03;;
68608;SDS011;55581;46.718;7.690;2023-12-20T00:04:09;10.87;;;5.13;;
68608;SDS011;55581;46.718;7.690;2023-12-20T00:06:37;10.07;;;4.80;;
68608;SDS011;55581;46.718;7.690;2023-12-20T00:09:02;10.70;;;5.43;;
68608;SDS011;55581;46.718;7.690;2023-12-20T00:11:30;11.75;;;5.47;;
68608;SDS011;55581;46.718;7.690;2023-12-20T00:13:55;10.00;;;5.33;;
68608;SDS011;55581;46.718;7.690;2023-12-20T00:16:21;11.32;;;5.82;;
68608;SDS011;55581;46.718;7.690;2023-12-20T00:18:46;10.83;;;4.93;;
68608;SDS011;55581;46.718;7.690;2023-12-20T00:21:12;9.97;;;4.90;;
68608;SDS011;55581;46.718;7.690;2023-12-20T00:23:40;8.15;;;4.22;;
68608;SDS011;55581;46.718;7.690;2023-12-20T00:26:07;9.68;;;4.60;;
68608;SDS011;55581;46.718;7.690;2023-12-20T00:28:33;8.70;;;4.77;;
68608;SDS011;55581;46.718;7.690;2023-12-20T00:31:01;9.30;;;5.35;;
68608;SDS011;55581;46.718;7.690;2023-12-20T00:33:27;9.40;;;5.20;;
68608;SDS011;55581;46.718;7.690;2023-12-20T00:35:52;9.83;;;5.40;;
68608;SDS011;55581;46.718;7.690;2023-12-20T00:38:18;11.90;;;5.30;;
68608;SDS011;55581;46.718;7.690;2023-12-20T00:40:44;11.27;;;6.13;;
68608;SDS011;55581;46.718;7.690;2023-12-20T00:43:10;9.55;;;5.32;;
68608;SDS011;55581;46.718;7.690;2023-12-20T00:45:35;9.93;;;5.50;;
68608;SDS011;55581;46.718;7.690;2023-12-20T00:48:01;11.20;;;6.18;;
68608;SDS011;55581;46.718;7.690;2023-12-20T00:50:27;9.47;;;5.13;;
68608;SDS011;55581;46.718;7.690;2023-12-20T00:52:52;11.57;;;5.50;;
68608;SDS011;55581;46.718;7.690;2023-12-20T00:55:19;10.35;;;5.30;;
68608;SDS011;55581;46.718;7.690;2023-12-20T00:57:45;10.10;;;4.83;;
68608;SDS011;55581;46.718;7.690;2023-12-20T01:00:13;10.37;;;4.70;;
68608;SDS011;55581;46.718;7.690;2023-12-20T01:02:42;10.63;;;5.03;;
68608;SDS011;55581;46.718;7.690;2023-12-20T01:05:07;9.17;;;4.00;;
68608;SDS011;55581;46.718;7.690;2023-12-20T01:07:35;8.27;;;3.75;;
68608;SDS011;55581;46.718;7.690;2023-12-20T01:10:01;9.55;;;4.80;;
68608;SDS011;55581;46.718;7.690;2023-12-20T01:12:26;8.93;;;4.63;;
68608;SDS011;55581;46.718;7.690;2023-12-20T01:14:51;11.03;;;4.87;;
68608;SDS011;55581;46.718;7.690;2023-12-20T01:17:17;9.60;;;5.03;;
68608;SDS011;55581;46.718;7.690;2023-12-20T01:19:42;10.20;;;5.17;;
68608;SDS011;55581;46.718;7.690;2023-12-20T01:22:08;9.83;;;5.60;;
68608;SDS011;55581;46.718;7.690;2023-12-20T01:24:33;10.40;;;5.27;;
68608;SDS011;55581;46.718;7.690;2023-12-20T01:26:59;10.77;;;5.70;;
68608;SDS011;55581;46.718;7.690;2023-12-20T01:29:24;11.47;;;5.17;;
68608;SDS011;55581;46.718;7.690;2023-12-20T01:31:49;10.07;;;4.70;;
68608;SDS011;55581;46.718;7.690;2023-12-20T01:34:15;10.90;;;5.20;;
68608;SDS011;55581;46.718;7.690;2023-12-20T01:36:42;8.10;;;4.60;;
68608;SDS011;55581;46.718;7.690;2023-12-20T01:39:08;10.80;;;5.77;;
68608;SDS011;55581;46.718;7.690;2023-12-20T01:41:33;9.27;;;4.72;;
68608;SDS011;55581;46.718;7.690;2023-12-20T01:43:58;11.20;;;4.90;;
68608;SDS011;55581;46.718;7.690;2023-12-20T01:46:24;9.80;;;4.97;;
68608;SDS011;55581;46.718;7.690;2023-12-20T01:48:53;9.43;;;4.95;;
68608;SDS011;55581;46.718;7.690;2023-12-20T01:51:18;8.47;;;4.40;;
68608;SDS011;55581;46.718;7.690;2023-12-20T01:53:46;8.23;;;4.28;;
68608;SDS011;55581;46.718;7.690;2023-12-20T01:56:12;8.57;;;4.40;;
68608;SDS011;55581;46.718;7.690;2023-12-20T01:58:42;8.63;;;4.13;;
68608;SDS011;55581;46.718;7.690;2023-12-20T02:01:09;8.25;;;4.03;;
68608;SDS011;55581;46.718;7.690;2023-12-20T02:03:35;9.65;;;4.50;;
68608;SDS011;55581;46.718;7.690;2023-12-20T02:06:02;9.38;;;4.80;;
68608;SDS011;55581;46.718;7.690;2023-12-20T02:08:28;9.13;;;4.55;;
68608;SDS011;55581;46.718;7.690;2023-12-20T02:10:54;10.60;;;4.20;;
68608;SDS011;55581;46.718;7.690;2023-12-20T02:13:21;9.75;;;4.60;;
68608;SDS011;55581;46.718;7.690;2023-12-20T02:15:46;8.17;;;3.33;;
68608;SDS011;55581;46.718;7.690;2023-12-20T02:18:12;8.03;;;3.80;;
68608;SDS011;55581;46.718;7.690;2023-12-20T02:20:40;9.00;;;3.55;;
68608;SDS011;55581;46.718;7.690;2023-12-20T02:23:06;7.90;;;4.03;;
68608;SDS011;55581;46.718;7.690;2023-12-20T02:25:31;9.23;;;3.87;;
68608;SDS011;55581;46.718;7.690;2023-12-20T02:27:56;8.67;;;4.00;;
68608;SDS011;55581;46.718;7.690;2023-12-20T02:30:22;7.60;;;3.40;;
68608;SDS011;55581;46.718;7.690;2023-12-20T02:32:49;10.07;;;3.28;;
68608;SDS011;55581;46.718;7.690;2023-12-20T02:35:15;7.80;;;3.65;;
68608;SDS011;55581;46.718;7.690;2023-12-20T02:37:40;7.30;;;3.13;;
68608;SDS011;55581;46.718;7.690;2023-12-20T02:40:06;7.17;;;3.30;;
68608;SDS011;55581;46.718;7.690;2023-12-20T02:42:32;6.33;;;3.17;;
68608;SDS011;55581;46.718;7.690;2023-12-20T02:44:57;8.90;;;3.87;;
68608;SDS011;55581;46.718;7.690;2023-12-20T02:47:23;7.30;;;3.30;;
68608;SDS011;55581;46.718;7.690;2023-12-20T02:49:48;8.60;;;3.83;;
68608;SDS011;55581;46.718;7.690;2023-12-20T02:52:17;8.95;;;3.50;;
68608;SDS011;55581;46.718;7.690;2023-12-20T02:54:43;8.33;;;3.50;;
68608;SDS011;55581;46.718;7.690;2023-12-20T02:57:08;6.77;;;3.23;;
68608;SDS011;55581;46.718;7.690;2023-12-20T02:59:34;7.17;;;3.57;;
68608;SDS011;55581;46.718;7.690;2023-12-20T03:02:00;8.27;;;3.13;;
68608;SDS011;55581;46.718;7.690;2023-12-20T03:04:26;6.77;;;2.70;;
68608;SDS011;55581;46.718;7.690;2023-12-20T03:06:51;8.30;;;3.45;;
68608;SDS011;55581;46.718;7.690;2023-12-20T03:09:16;7.80;;;3.17;;
68608;SDS011;55581;46.718;7.690;2023-12-20T03:11:42;5.83;;;2.80;;
68608;SDS011;55581;46.718;7.690;2023-12-20T03:14:08;7.53;;;3.23;;
68608;SDS011;55581;46.718;7.690;2023-12-20T03:16:34;6.97;;;2.80;;
68608;SDS011;55581;46.718;7.690;2023-12-20T03:19:00;7.20;;;2.90;;
68608;SDS011;55581;46.718;7.690;2023-12-20T03:21:25;6.70;;;2.70;;
68608;SDS011;55581;46.718;7.690;2023-12-20T03:23:51;6.13;;;2.67;;
68608;SDS011;55581;46.718;7.690;2023-12-20T03:26:16;5.07;;;2.03;;
68608;SDS011;55581;46.718;7.690;2023-12-20T03:28:42;8.13;;;3.40;;
68608;SDS011;55581;46.718;7.690;2023-12-20T03:31:07;8.90;;;3.90;;
68608;SDS011;55581;46.718;7.690;2023-12-20T03:33:34;8.23;;;3.78;;
68608;SDS011;55581;46.718;7.690;2023-12-20T03:36:02;9.02;;;4.20;;
68608;SDS011;55581;46.718;7.690;2023-12-20T03:38:28;6.93;;;3.90;;
68608;SDS011;55581;46.718;7.690;2023-12-20T03:40:56;7.40;;;3.92;;
68608;SDS011;55581;46.718;7.690;2023-12-20T03:43:25;7.20;;;3.87;;
68608;SDS011;55581;46.718;7.690;2023-12-20T03:45:54;7.63;;;3.30;;
68608;SDS011;55581;46.718;7.690;2023-12-20T03:48:23;10.75;;;3.97;;
68608;SDS011;55581;46.718;7.690;2023-12-20T03:50:49;7.93;;;4.00;;
68608;SDS011;55581;46.718;7.690;2023-12-20T03:53:14;9.10;;;3.70;;
68608;SDS011;55581;46.718;7.690;2023-12-20T03:55:39;7.40;;;3.60;;
68608;SDS011;55581;46.718;7.690;2023-12-20T03:58:05;7.13;;;3.10;;
68608;SDS011;55581;46.718;7.690;2023-12-20T04:00:30;7.87;;;3.10;;
68608;SDS011;55581;46.718;7.690;2023-12-20T04:02:55;6.37;;;3.10;;
68608;SDS011;55581;46.718;7.690;2023-12-20T04:05:21;7.20;;;2.97;;
68608;SDS011;55581;46.718;7.690;2023-12-20T04:07:49;7.55;;;3.00;;
68608;SDS011;55581;46.718;7.690;2023-12-20T04:10:16;7.03;;;3.35;;
68608;SDS011;55581;46.718;7.690;2023-12-20T04:12:41;7.63;;;2.87;;
68608;SDS011;55581;46.718;7.690;2023-12-20T04:15:06;5.63;;;2.80;;
68608;SDS011;55581;46.718;7.690;2023-12-20T04:17:34;7.82;;;2.85;;
68608;SDS011;55581;46.718;7.690;2023-12-20T04:20:00;6.55;;;2.88;;
68608;SDS011;55581;46.718;7.690;2023-12-20T04:22:28;5.80;;;2.80;;
68608;SDS011;55581;46.718;7.690;2023-12-20T04:24:56;6.30;;;2.78;;
68608;SDS011;55581;46.718;7.690;2023-12-20T04:27:24;6.75;;;2.97;;
68608;SDS011;55581;46.718;7.690;2023-12-20T04:29:52;6.10;;;3.00;;
68608;SDS011;55581;46.718;7.690;2023-12-20T04:32:23;6.78;;;3.08;;
68608;SDS011;55581;46.718;7.690;2023-12-20T04:34:48;7.80;;;3.57;;
68608;SDS011;55581;46.718;7.690;2023-12-20T04:37:14;6.77;;;2.90;;
68608;SDS011;55581;46.718;7.690;2023-12-20T04:39:42;6.83;;;2.73;;
68608;SDS011;55581;46.718;7.690;2023-12-20T04:42:11;7.80;;;3.45;;
68608;SDS011;55581;46.718;7.690;2023-12-20T04:44:38;7.72;;;3.13;;
68608;SDS011;55581;46.718;7.690;2023-12-20T04:47:04;5.77;;;2.60;;
68608;SDS011;55581;46.718;7.690;2023-12-20T04:49:29;5.83;;;2.50;;
68608;SDS011;55581;46.718;7.690;2023-12-20T04:51:55;6.10;;;2.45;;
68608;SDS011;55581;46.718;7.690;2023-12-20T04:54:22;5.83;;;2.50;;
68608;SDS011;55581;46.718;7.690;2023-12-20T04:56:47;7.10;;;2.63;;
68608;SDS011;55581;46.718;7.690;2023-12-20T04:59:15;5.83;;;2.63;;
68608;SDS011;55581;46.718;7.690;2023-12-20T05:01:40;7.75;;;3.05;;
68608;SDS011;55581;46.718;7.690;2023-12-20T05:04:06;7.13;;;3.00;;
68608;SDS011;55581;46.718;7.690;2023-12-20T05:06:32;5.93;;;2.70;;
68608;SDS011;55581;46.718;7.690;2023-12-20T05:08:57;7.10;;;3.50;;
68608;SDS011;55581;46.718;7.690;2023-12-20T05:11:23;7.83;;;3.20;;
68608;SDS011;55581;46.718;7.690;2023-12-20T05:13:49;6.20;;;2.97;;
68608;SDS011;55581;46.718;7.690;2023-12-20T05:16:14;8.20;;;3.40;;
68608;SDS011;55581;46.718;7.690;2023-12-20T05:18:45;7.25;;;3.33;;
68608;SDS011;55581;46.718;7.690;2023-12-20T05:21:10;6.82;;;2.20;;
68608;SDS011;55581;46.718;7.690;2023-12-20T05:23:36;6.80;;;2.60;;
68608;SDS011;55581;46.718;7.690;2023-12-20T05:26:01;7.60;;;2.80;;
68608;SDS011;55581;46.718;7.690;2023-12-20T05:28:27;9.05;;;2.58;;
68608;SDS011;55581;46.718;7.690;2023-12-20T05:30:52;7.13;;;3.10;;
68608;SDS011;55581;46.718;7.690;2023-12-20T05:33:18;6.50;;;2.63;;
68608;SDS011;55581;46.718;7.690;2023-12-20T05:35:44;6.17;;;2.53;;
68608;SDS011;55581;46.718;7.690;2023-12-20T05:38:12;7.70;;;3.60;;
68608;SDS011;55581;46.718;7.690;2023-12-20T05:40:37;7.78;;;3.25;;
68608;SDS011;55581;46.718;7.690;2023-12-20T05:43:03;9.02;;;3.22;;
68608;SDS011;55581;46.718;7.690;2023-12-20T05:45:28;11.00;;;3.63;;
68608;SDS011;55581;46.718;7.690;2023-12-20T05:47:54;6.22;;;3.10;;
68608;SDS011;55581;46.718;7.690;2023-12-20T05:50:20;6.73;;;3.00;;
68608;SDS011;55581;46.718;7.690;2023-12-20T05:52:46;6.80;;;2.97;;
68608;SDS011;55581;46.718;7.690;2023-12-20T05:55:12;10.20;;;3.40;;
68608;SDS011;55581;46.718;7.690;2023-12-20T05:57:37;7.18;;;3.28;;
68608;SDS011;55581;46.718;7.690;2023-12-20T06:00:04;7.43;;;3.27;;
68608;SDS011;55581;46.718;7.690;2023-12-20T06:02:31;8.23;;;3.75;;
68608;SDS011;55581;46.718;7.690;2023-12-20T06:04:57;8.60;;;3.95;;
68608;SDS011;55581;46.718;7.690;2023-12-20T06:07:23;8.77;;;4.30;;
68608;SDS011;55581;46.718;7.690;2023-12-20T06:09:50;9.38;;;4.10;;
68608;SDS011;55581;46.718;7.690;2023-12-20T06:12:16;11.47;;;4.23;;
68608;SDS011;55581;46.718;7.690;2023-12-20T06:14:41;8.10;;;4.03;;
68608;SDS011;55581;46.718;7.690;2023-12-20T06:17:07;8.53;;;3.90;;
68608;SDS011;55581;46.718;7.690;2023-12-20T06:19:32;7.78;;;3.88;;
68608;SDS011;55581;46.718;7.690;2023-12-20T06:21:57;7.83;;;3.57;;
68608;SDS011;55581;46.718;7.690;2023-12-20T06:24:23;7.17;;;3.67;;
68608;SDS011;55581;46.718;7.690;2023-12-20T06:26:52;7.45;;;3.38;;
68608;SDS011;55581;46.718;7.690;2023-12-20T06:29:21;7.65;;;3.50;;
68608;SDS011;55581;46.718;7.690;2023-12-20T06:31:46;9.27;;;3.83;;
68608;SDS011;55581;46.718;7.690;2023-12-20T06:34:14;9.93;;;3.70;;
68608;SDS011;55581;46.718;7.690;2023-12-20T06:36:39;7.88;;;4.30;;
68608;SDS011;55581;46.718;7.690;2023-12-20T06:39:05;9.17;;;4.07;;
68608;SDS011;55581;46.718;7.690;2023-12-20T06:41:30;9.17;;;5.03;;
68608;SDS011;55581;46.718;7.690;2023-12-20T06:43:55;8.73;;;4.07;;
68608;SDS011;55581;46.718;7.690;2023-12-20T06:46:21;8.95;;;4.32;;
68608;SDS011;55581;46.718;7.690;2023-12-20T06:48:47;10.60;;;5.07;;
68608;SDS011;55581;46.718;7.690;2023-12-20T06:51:17;10.80;;;4.93;;
68608;SDS011;55581;46.718;7.690;2023-12-20T06:53:45;10.50;;;5.35;;
68608;SDS011;55581;46.718;7.690;2023-12-20T06:56:10;10.07;;;5.00;;
68608;SDS011;55581;46.718;7.690;2023-12-20T06:58:39;8.80;;;4.28;;
68608;SDS011;55581;46.718;7.690;2023-12-20T07:01:04;10.30;;;4.83;;
68608;SDS011;55581;46.718;7.690;2023-12-20T07:03:30;10.63;;;5.25;;
68608;SDS011;55581;46.718;7.690;2023-12-20T07:05:55;8.83;;;4.80;;
68608;SDS011;55581;46.718;7.690;2023-12-20T07:08:20;9.00;;;5.10;;
68608;SDS011;55581;46.718;7.690;2023-12-20T07:10:46;11.30;;;5.73;;
68608;SDS011;55581;46.718;7.690;2023-12-20T07:13:11;9.52;;;5.55;;
68608;SDS011;55581;46.718;7.690;2023-12-20T07:15:37;11.53;;;4.97;;
68608;SDS011;55581;46.718;7.690;2023-12-20T07:18:03;10.77;;;5.50;;
68608;SDS011;55581;46.718;7.690;2023-12-20T07:20:31;15.13;;;7.90;;
68608;SDS011;55581;46.718;7.690;2023-12-20T07:22:57;13.35;;;7.55;;
68608;SDS011;55581;46.718;7.690;2023-12-20T07:25:22;11.37;;;6.13;;
68608;SDS011;55581;46.718;7.690;2023-12-20T07:27:50;10.02;;;5.30;;
68608;SDS011;55581;46.718;7.690;2023-12-20T07:30:15;9.40;;;5.67;;
68608;SDS011;55581;46.718;7.690;2023-12-20T07:32:40;11.13;;;6.10;;
68608;SDS011;55581;46.718;7.690;2023-12-20T07:35:06;10.20;;;6.43;;
68608;SDS011;55581;46.718;7.690;2023-12-20T07:37:34;12.52;;;6.93;;
68608;SDS011;55581;46.718;7.690;2023-12-20T07:40:00;18.83;;;8.05;;
68608;SDS011;55581;46.718;7.690;2023-12-20T07:42:31;16.92;;;6.32;;
68608;SDS011;55581;46.718;7.690;2023-12-20T07:44:56;13.02;;;6.30;;
68608;SDS011;55581;46.718;7.690;2023-12-20T07:47:21;9.33;;;4.33;;
68608;SDS011;55581;46.718;7.690;2023-12-20T07:49:48;11.03;;;4.80;;
68608;SDS011;55581;46.718;7.690;2023-12-20T07:52:17;8.45;;;4.80;;
68608;SDS011;55581;46.718;7.690;2023-12-20T07:54:43;11.77;;;5.63;;
68608;SDS011;55581;46.718;7.690;2023-12-20T07:57:09;10.37;;;5.13;;
68608;SDS011;55581;46.718;7.690;2023-12-20T07:59:36;10.15;;;5.40;;
68608;SDS011;55581;46.718;7.690;2023-12-20T08:02:01;10.73;;;5.63;;
68608;SDS011;55581;46.718;7.690;2023-12-20T08:04:29;8.82;;;3.97;;
68608;SDS011;55581;46.718;7.690;2023-12-20T08:06:55;8.37;;;4.30;;
68608;SDS011;55581;46.718;7.690;2023-12-20T08:09:22;8.27;;;4.22;;
68608;SDS011;55581;46.718;7.690;2023-12-20T08:11:48;9.60;;;4.90;;
68608;SDS011;55581;46.718;7.690;2023-12-20T08:14:16;9.15;;;5.07;;
68608;SDS011;55581;46.718;7.690;2023-12-20T08:16:42;12.27;;;6.63;;
68608;SDS011;55581;46.718;7.690;2023-12-20T08:19:07;10.10;;;6.47;;
68608;SDS011;55581;46.718;7.690;2023-12-20T08:21:33;10.27;;;5.70;;
68608;SDS011;55581;46.718;7.690;2023-12-20T08:23:59;9.90;;;5.25;;
68608;SDS011;55581;46.718;7.690;2023-12-20T08:26:25;11.60;;;5.88;;
68608;SDS011;55581;46.718;7.690;2023-12-20T08:28:51;10.63;;;5.80;;
68608;SDS011;55581;46.718;7.690;2023-12-20T08:31:16;12.07;;;6.30;;
68608;SDS011;55581;46.718;7.690;2023-12-20T08:33:46;12.65;;;6.40;;
68608;SDS011;55581;46.718;7.690;2023-12-20T08:36:13;10.77;;;5.72;;
68608;SDS011;55581;46.718;7.690;2023-12-20T08:38:39;14.03;;;6.80;;
68608;SDS011;55581;46.718;7.690;2023-12-20T08:41:04;13.40;;;5.97;;
68608;SDS011;55581;46.718;7.690;2023-12-20T08:43:30;9.57;;;5.50;;
68608;SDS011;55581;46.718;7.690;2023-12-20T08:45:56;8.45;;;4.75;;
68608;SDS011;55581;46.718;7.690;2023-12-20T08:48:22;12.48;;;5.55;;
68608;SDS011;55581;46.718;7.690;2023-12-20T08:50:47;10.17;;;5.60;;
68608;SDS011;55581;46.718;7.690;2023-12-20T08:53:14;11.70;;;5.70;;
68608;SDS011;55581;46.718;7.690;2023-12-20T08:55:41;8.80;;;4.70;;
68608;SDS011;55581;46.718;7.690;2023-12-20T08:58:07;9.50;;;5.07;;
68608;SDS011;55581;46.718;7.690;2023-12-20T09:00:35;9.82;;;5.38;;
68608;SDS011;55581;46.718;7.690;2023-12-20T09:03:03;10.47;;;5.47;;
68608;SDS011;55581;46.718;7.690;2023-12-20T09:05:29;8.55;;;5.05;;
68608;SDS011;55581;46.718;7.690;2023-12-20T09:07:55;10.20;;;5.23;;
68608;SDS011;55581;46.718;7.690;2023-12-20T09:10:20;9.35;;;5.00;;
68608;SDS011;55581;46.718;7.690;2023-12-20T09:12:53;8.45;;;4.30;;
68608;SDS011;55581;46.718;7.690;2023-12-20T09:15:26;8.90;;;4.70;;
68608;SDS011;55581;46.718;7.690;2023-12-20T09:17:52;9.35;;;5.05;;
68608;SDS011;55581;46.718;7.690;2023-12-20T09:20:18;7.70;;;4.45;;
68608;SDS011;55581;46.718;7.690;2023-12-20T09:22:44;8.98;;;4.78;;
68608;SDS011;55581;46.718;7.690;2023-12-20T09:25:10;10.47;;;5.03;;
68608;SDS011;55581;46.718;7.690;2023-12-20T09:27:36;10.30;;;4.50;;
68608;SDS011;55581;46.718;7.690;2023-12-20T09:30:02;10.50;;;3.83;;
68608;SDS011;55581;46.718;7.690;2023-12-20T09:32:29;7.53;;;3.83;;
68608;SDS011;55581;46.718;7.690;2023-12-20T09:34:54;7.88;;;3.60;;
68608;SDS011;55581;46.718;7.690;2023-12-20T09:37:20;10.03;;;4.30;;
68608;SDS011;55581;46.718;7.690;2023-12-20T09:39:45;9.67;;;3.80;;
68608;SDS011;55581;46.718;7.690;2023-12-20T09:42:11;6.77;;;3.70;;
68608;SDS011;55581;46.718;7.690;2023-12-20T09:44:41;9.20;;;4.23;;
68608;SDS011;55581;46.718;7.690;2023-12-20T09:47:07;9.35;;;4.38;;
68608;SDS011;55581;46.718;7.690;2023-12-20T09:49:33;8.75;;;4.68;;
68608;SDS011;55581;46.718;7.690;2023-12-20T09:51:59;9.13;;;4.82;;
68608;SDS011;55581;46.718;7.690;2023-12-20T09:54:25;8.53;;;4.13;;
68608;SDS011;55581;46.718;7.690;2023-12-20T09:56:53;9.00;;;4.65;;
68608;SDS011;55581;46.718;7.690;2023-12-20T09:59:18;9.03;;;4.50;;
68608;SDS011;55581;46.718;7.690;2023-12-20T10:01:46;9.57;;;5.10;;
68608;SDS011;55581;46.718;7.690;2023-12-20T10:04:13;8.02;;;3.90;;
68608;SDS011;55581;46.718;7.690;2023-12-20T10:06:39;8.73;;;4.75;;
68608;SDS011;55581;46.718;7.690;2023-12-20T10:09:11;8.60;;;3.90;;
68608;SDS011;55581;46.718;7.690;2023-12-20T10:11:37;6.68;;;3.80;;
68608;SDS011;55581;46.718;7.690;2023-12-20T10:14:04;8.90;;;4.35;;
68608;SDS011;55581;46.718;7.690;2023-12-20T10:16:30;8.85;;;4.57;;
68608;SDS011;55581;46.718;7.690;2023-12-20T10:18:57;7.75;;;3.83;;
68608;SDS011;55581;46.718;7.690;2023-12-20T10:21:23;6.87;;;3.37;;
68608;SDS011;55581;46.718;7.690;2023-12-20T10:23:51;5.55;;;2.83;;
68608;SDS011;55581;46.718;7.690;2023-12-20T10:26:19;7.15;;;2.80;;
68608;SDS011;55581;46.718;7.690;2023-12-20T10:28:51;8.00;;;2.83;;
68608;SDS011;55581;46.718;7.690;2023-12-20T10:31:28;4.07;;;1.60;;
68608;SDS011;55581;46.718;7.690;2023-12-20T10:33:57;5.70;;;2.40;;
68608;SDS011;55581;46.718;7.690;2023-12-20T10:36:26;9.15;;;3.10;;
68608;SDS011;55581;46.718;7.690;2023-12-20T10:38:55;9.85;;;2.90;;
68608;SDS011;55581;46.718;7.690;2023-12-20T10:41:29;5.97;;;3.10;;
68608;SDS011;55581;46.718;7.690;2023-12-20T10:44:00;7.68;;;2.83;;
68608;SDS011;55581;46.718;7.690;2023-12-20T10:46:27;6.07;;;2.80;;
68608;SDS011;55581;46.718;7.690;2023-12-20T10:48:56;6.05;;;2.10;;
68608;SDS011;55581;46.718;7.690;2023-12-20T10:51:22;4.15;;;1.75;;
68608;SDS011;55581;46.718;7.690;2023-12-20T10:53:51;5.95;;;2.28;;
68608;SDS011;55581;46.718;7.690;2023-12-20T10:56:18;6.85;;;3.55;;
68608;SDS011;55581;46.718;7.690;2023-12-20T10:58:47;6.47;;;2.63;;
68608;SDS011;55581;46.718;7.690;2023-12-20T11:01:14;5.18;;;2.45;;
68608;SDS011;55581;46.718;7.690;2023-12-20T11:03:55;5.97;;;2.58;;
68608;SDS011;55581;46.718;7.690;2023-12-20T11:15:02;5.35;;;2.70;;
68608;SDS011;55581;46.718;7.690;2023-12-20T11:17:29;6.40;;;3.08;;
68608;SDS011;55581;46.718;7.690;2023-12-20T11:22:23;5.90;;;2.80;;
68608;SDS011;55581;46.718;7.690;2023-12-20T11:24:50;6.45;;;2.90;;
68608;SDS011;55581;46.718;7.690;2023-12-20T11:27:16;5.60;;;2.90;;
68608;SDS011;55581;46.718;7.690;2023-12-20T11:29:50;5.27;;;2.30;;
68608;SDS011;55581;46.718;7.690;2023-12-20T11:34:56;6.25;;;2.80;;
68608;SDS011;55581;46.718;7.690;2023-12-20T11:37:35;6.05;;;2.60;;
68608;SDS011;55581;46.718;7.690;2023-12-20T11:40:02;6.65;;;3.05;;
68608;SDS011;55581;46.718;7.690;2023-12-20T11:42:37;5.60;;;2.70;;
68608;SDS011;55581;46.718;7.690;2023-12-20T11:45:03;5.97;;;2.65;;
68608;SDS011;55581;46.718;7.690;2023-12-20T11:47:30;6.13;;;2.75;;
68608;SDS011;55581;46.718;7.690;2023-12-20T11:49:58;6.15;;;3.08;;
68608;SDS011;55581;46.718;7.690;2023-12-20T11:52:28;4.47;;;2.00;;
68608;SDS011;55581;46.718;7.690;2023-12-20T11:54:54;5.28;;;2.40;;
68608;SDS011;55581;46.718;7.690;2023-12-20T11:57:19;5.50;;;2.37;;
68608;SDS011;55581;46.718;7.690;2023-12-20T11:59:45;5.27;;;2.30;;
68608;SDS011;55581;46.718;7.690;2023-12-20T12:02:11;6.78;;;2.45;;
68608;SDS011;55581;46.718;7.690;2023-12-20T12:04:37;5.50;;;2.63;;
68608;SDS011;55581;46.718;7.690;2023-12-20T12:07:04;5.55;;;2.70;;
68608;SDS011;55581;46.718;7.690;2023-12-20T12:09:30;5.77;;;2.53;;
68608;SDS011;55581;46.718;7.690;2023-12-20T12:11:57;6.15;;;2.33;;
68608;SDS011;55581;46.718;7.690;2023-12-20T12:14:23;4.43;;;1.98;;
68608;SDS011;55581;46.718;7.690;2023-12-20T12:16:50;5.30;;;2.10;;
68608;SDS011;55581;46.718;7.690;2023-12-20T12:19:22;5.93;;;2.60;;
68608;SDS011;55581;46.718;7.690;2023-12-20T12:21:50;5.15;;;2.13;;
68608;SDS011;55581;46.718;7.690;2023-12-20T12:24:20;7.40;;;2.70;;
68608;SDS011;55581;46.718;7.690;2023-12-20T12:26:50;7.55;;;2.70;;
68608;SDS011;55581;46.718;7.690;2023-12-20T12:29:16;6.00;;;3.13;;
68608;SDS011;55581;46.718;7.690;2023-12-20T12:31:46;6.10;;;2.93;;
68608;SDS011;55581;46.718;7.690;2023-12-20T12:34:12;6.40;;;2.33;;
68608;SDS011;55581;46.718;7.690;2023-12-20T12:36:38;6.10;;;2.93;;
68608;SDS011;55581;46.718;7.690;2023-12-20T12:39:04;8.13;;;3.00;;
68608;SDS011;55581;46.718;7.690;2023-12-20T12:41:30;6.93;;;2.87;;
68608;SDS011;55581;46.718;7.690;2023-12-20T12:43:58;5.70;;;2.58;;
68608;SDS011;55581;46.718;7.690;2023-12-20T12:46:24;6.07;;;2.85;;
68608;SDS011;55581;46.718;7.690;2023-12-20T12:48:49;5.03;;;2.13;;
68608;SDS011;55581;46.718;7.690;2023-12-20T12:51:15;4.93;;;2.03;;
68608;SDS011;55581;46.718;7.690;2023-12-20T12:53:46;3.25;;;0.98;;
68608;SDS011;55581;46.718;7.690;2023-12-20T12:56:12;2.47;;;0.30;;
68608;SDS011;55581;46.718;7.690;2023-12-20T12:58:39;2.65;;;0.57;;
68608;SDS011;55581;46.718;7.690;2023-12-20T13:01:05;1.70;;;0.23;;
68608;SDS011;55581;46.718;7.690;2023-12-20T13:03:30;1.33;;;0.20;;
68608;SDS011;55581;46.718;7.690;2023-12-20T13:05:58;2.10;;;0.30;;
68608;SDS011;55581;46.718;7.690;2023-12-20T13:08:23;2.55;;;0.32;;
68608;SDS011;55581;46.718;7.690;2023-12-20T13:10:49;1.57;;;0.17;;
68608;SDS011;55581;46.718;7.690;2023-12-20T13:13:15;1.92;;;0.30;;
68608;SDS011;55581;46.718;7.690;2023-12-20T13:15:41;2.13;;;0.20;;
68608;SDS011;55581;46.718;7.690;2023-12-20T13:18:07;3.85;;;0.70;;
68608;SDS011;55581;46.718;7.690;2023-12-20T13:20:32;2.47;;;0.40;;
68608;SDS011;55581;46.718;7.690;2023-12-20T13:22:59;3.47;;;1.23;;
68608;SDS011;55581;46.718;7.690;2023-12-20T13:25:28;2.08;;;0.30;;
68608;SDS011;55581;46.718;7.690;2023-12-20T13:27:54;1.87;;;0.30;;
68608;SDS011;55581;46.718;7.690;2023-12-20T13:30:21;3.13;;;0.88;;
68608;SDS011;55581;46.718;7.690;2023-12-20T13:32:47;2.10;;;0.30;;
68608;SDS011;55581;46.718;7.690;2023-12-20T13:35:12;3.67;;;0.30;;
68608;SDS011;55581;46.718;7.690;2023-12-20T13:37:38;2.23;;;0.40;;
68608;SDS011;55581;46.718;7.690;2023-12-20T13:40:07;1.42;;;0.20;;
68608;SDS011;55581;46.718;7.690;2023-12-20T13:42:33;2.13;;;0.40;;
68608;SDS011;55581;46.718;7.690;2023-12-20T13:44:58;1.77;;;0.20;;
68608;SDS011;55581;46.718;7.690;2023-12-20T13:47:23;1.77;;;0.20;;
68608;SDS011;55581;46.718;7.690;2023-12-20T13:49:49;1.83;;;0.20;;
68608;SDS011;55581;46.718;7.690;2023-12-20T13:52:15;2.25;;;0.40;;
68608;SDS011;55581;46.718;7.690;2023-12-20T13:54:41;2.60;;;0.60;;
68608;SDS011;55581;46.718;7.690;2023-12-20T13:57:06;2.03;;;0.33;;
68608;SDS011;55581;46.718;7.690;2023-12-20T13:59:32;2.00;;;0.37;;
68608;SDS011;55581;46.718;7.690;2023-12-20T14:01:57;2.88;;;0.20;;
68608;SDS011;55581;46.718;7.690;2023-12-20T14:04:23;2.80;;;0.67;;
68608;SDS011;55581;46.718;7.690;2023-12-20T14:06:48;2.43;;;0.50;;
68608;SDS011;55581;46.718;7.690;2023-12-20T14:09:15;2.20;;;0.50;;
68608;SDS011;55581;46.718;7.690;2023-12-20T14:11:41;2.13;;;0.50;;
68608;SDS011;55581;46.718;7.690;2023-12-20T14:14:09;2.05;;;0.50;;
68608;SDS011;55581;46.718;7.690;2023-12-20T14:16:35;1.87;;;0.40;;
68608;SDS011;55581;46.718;7.690;2023-12-20T14:19:01;2.70;;;0.45;;
68608;SDS011;55581;46.718;7.690;2023-12-20T14:21:28;2.70;;;0.90;;
68608;SDS011;55581;46.718;7.690;2023-12-20T14:23:54;1.93;;;0.30;;
68608;SDS011;55581;46.718;7.690;2023-12-20T14:26:20;3.03;;;0.65;;
68608;SDS011;55581;46.718;7.690;2023-12-20T14:28:45;5.50;;;0.57;;
68608;SDS011;55581;46.718;7.690;2023-12-20T14:31:14;2.92;;;0.30;;
68608;SDS011;55581;46.718;7.690;2023-12-20T14:33:39;5.90;;;0.60;;
68608;SDS011;55581;46.718;7.690;2023-12-20T14:36:09;6.45;;;0.47;;
68608;SDS011;55581;46.718;7.690;2023-12-20T14:38:34;7.10;;;0.60;;
68608;SDS011;55581;46.718;7.690;2023-12-20T14:41:03;2.60;;;0.70;;
68608;SDS011;55581;46.718;7.690;2023-12-20T14:43:30;3.20;;;0.60;;
68608;SDS011;55581;46.718;7.690;2023-12-20T14:45:56;4.18;;;0.80;;
68608;SDS011;55581;46.718;7.690;2023-12-20T14:48:23;9.07;;;4.83;;
68608;SDS011;55581;46.718;7.690;2023-12-20T14:50:52;2.42;;;0.73;;
68608;SDS011;55581;46.718;7.690;2023-12-20T14:53:18;2.60;;;0.55;;
68608;SDS011;55581;46.718;7.690;2023-12-20T14:55:44;2.77;;;0.70;;